createdAt,value
2019-02-08T00:00:46.659Z,83.90
2019-02-08T00:01:51.117Z,84.80
2019-02-08T00:02:55.574Z,84.00
2019-02-08T00:04:00.094Z,83.90
2019-02-08T00:05:06.497Z,84.10
2019-02-08T00:06:11.041Z,84.00
2019-02-08T00:07:15.492Z,84.00
2019-02-08T00:08:19.972Z,84.10
2019-02-08T00:09:24.592Z,84.20
2019-02-08T00:10:29.124Z,84.10
2019-02-08T00:11:33.999Z,84.10
2019-02-08T00:12:38.442Z,84.10
2019-02-08T00:13:42.900Z,84.30
2019-02-08T00:14:47.393Z,84.30
2019-02-08T00:15:51.978Z,84.30
2019-02-08T00:16:56.461Z,84.30
2019-02-08T00:18:00.917Z,84.30
2019-02-08T00:19:05.745Z,84.30
2019-02-08T00:20:17.788Z,84.40
2019-02-08T00:21:22.237Z,84.40
2019-02-08T00:22:26.703Z,84.30
2019-02-08T00:23:31.210Z,84.30
2019-02-08T00:24:35.662Z,84.30
2019-02-08T00:25:40.192Z,84.40
2019-02-08T00:26:44.710Z,84.50
2019-02-08T00:27:49.532Z,84.50
2019-02-08T00:28:54.278Z,84.30
2019-02-08T00:29:59.115Z,84.40
2019-02-08T00:31:03.653Z,84.40
2019-02-08T00:32:08.179Z,84.60
2019-02-08T00:33:12.669Z,84.50
2019-02-08T00:34:17.109Z,84.60
2019-02-08T00:35:22.110Z,84.50
2019-02-08T00:36:26.585Z,84.40
2019-02-08T00:37:31.036Z,84.50
2019-02-08T00:38:35.514Z,84.50
2019-02-08T00:39:39.994Z,85.40
2019-02-08T00:40:44.562Z,84.60
2019-02-08T00:41:49.059Z,84.50
2019-02-08T00:42:53.650Z,84.60
2019-02-08T00:43:58.124Z,84.60
2019-02-08T00:45:03.257Z,84.60
2019-02-08T00:46:08.095Z,84.60
2019-02-08T00:47:12.558Z,84.60
2019-02-08T00:48:17.016Z,84.60
2019-02-08T00:49:21.481Z,84.60
2019-02-08T00:50:28.371Z,84.50
2019-02-08T00:51:32.836Z,84.70
2019-02-08T00:52:37.314Z,84.80
2019-02-08T00:53:41.857Z,84.60
2019-02-08T00:54:46.318Z,84.50
2019-02-08T00:55:50.857Z,84.50
2019-02-08T00:56:55.382Z,84.60
2019-02-08T00:57:59.909Z,84.50
2019-02-08T00:59:04.893Z,84.50
2019-02-08T01:00:12.160Z,84.60
2019-02-08T01:01:16.654Z,84.60
2019-02-08T01:02:21.453Z,84.60
2019-02-08T01:03:25.902Z,84.50
2019-02-08T01:04:30.353Z,84.60
2019-02-08T01:05:34.809Z,84.60
2019-02-08T01:06:39.345Z,84.60
2019-02-08T01:07:44.145Z,84.50
2019-02-08T01:08:48.605Z,84.60
2019-02-08T01:09:53.060Z,84.50
2019-02-08T01:10:57.524Z,85.30
2019-02-08T01:12:02.233Z,84.50
2019-02-08T01:13:06.685Z,84.50
2019-02-08T01:14:11.216Z,84.50
2019-02-08T01:15:17.407Z,84.40
2019-02-08T01:16:21.873Z,84.80
2019-02-08T01:17:26.334Z,84.40
2019-02-08T01:18:30.989Z,84.40
2019-02-08T01:19:35.467Z,84.50
2019-02-08T01:20:40.022Z,84.40
2019-02-08T01:21:44.465Z,84.40
2019-02-08T01:22:49.006Z,84.40
2019-02-08T01:23:53.469Z,84.40
2019-02-08T01:24:57.929Z,84.30
2019-02-08T01:26:02.388Z,84.30
2019-02-08T01:27:06.846Z,84.30
2019-02-08T01:28:11.394Z,84.20
2019-02-08T01:29:15.862Z,84.20
2019-02-08T01:30:22.250Z,84.20
2019-02-08T01:31:26.706Z,84.10
2019-02-08T01:32:31.166Z,84.00
2019-02-08T01:33:35.701Z,84.10
2019-02-08T01:34:40.150Z,84.00
2019-02-08T01:35:44.605Z,84.00
2019-02-08T01:36:49.142Z,83.90
2019-02-08T01:37:54.363Z,83.80
2019-02-08T01:38:58.827Z,83.80
2019-02-08T01:40:05.413Z,83.90
2019-02-08T01:41:10.050Z,83.90
2019-02-08T01:42:14.581Z,83.90
2019-02-08T01:43:19.069Z,83.90
2019-02-08T01:44:23.523Z,83.80
2019-02-08T01:45:30.720Z,83.80
2019-02-08T01:46:35.183Z,84.00
2019-02-08T01:47:39.876Z,83.90
2019-02-08T01:48:44.355Z,83.80
2019-02-08T01:49:49.106Z,83.70
2019-02-08T01:50:53.929Z,83.70
2019-02-08T01:51:58.448Z,83.70
2019-02-08T01:53:02.975Z,83.50
2019-02-08T01:54:07.453Z,83.40
2019-02-08T01:55:12.650Z,83.30
2019-02-08T01:56:17.120Z,83.30
2019-02-08T01:57:21.583Z,83.40
2019-02-08T01:58:26.129Z,83.30
2019-02-08T01:59:30.753Z,83.10
2019-02-08T02:00:40.974Z,83.20
2019-02-08T02:01:45.493Z,83.10
2019-02-08T02:02:49.953Z,83.10
2019-02-08T02:03:54.800Z,83.10
2019-02-08T02:04:59.249Z,83.00
2019-02-08T02:06:03.901Z,83.10
2019-02-08T02:07:08.365Z,82.90
2019-02-08T02:08:12.849Z,82.80
2019-02-08T02:09:17.477Z,82.70
2019-02-08T02:10:27.402Z,82.90
2019-02-08T02:11:31.845Z,82.70
2019-02-08T02:12:36.449Z,82.70
2019-02-08T02:13:41.001Z,82.70
2019-02-08T02:14:45.459Z,82.60
2019-02-08T02:15:49.996Z,82.60
2019-02-08T02:16:54.841Z,82.70
2019-02-08T02:17:59.436Z,82.60
2019-02-08T02:19:04.163Z,82.60
2019-02-08T02:20:11.765Z,82.50
2019-02-08T02:21:16.243Z,82.60
2019-02-08T02:22:20.707Z,82.50
2019-02-08T02:23:25.172Z,82.60
2019-02-08T02:24:30.731Z,82.60
2019-02-08T02:25:35.190Z,82.70
2019-02-08T02:26:39.666Z,82.80
2019-02-08T02:27:44.121Z,82.90
2019-02-08T02:28:49.078Z,82.90
2019-02-08T02:29:53.516Z,82.90
2019-02-08T02:30:58.053Z,82.90
2019-02-08T02:32:02.514Z,82.90
2019-02-08T02:33:09.587Z,83.00
2019-02-08T02:34:14.040Z,82.90
2019-02-08T02:35:18.578Z,82.80
2019-02-08T02:36:23.044Z,82.90
2019-02-08T02:37:27.562Z,82.90
2019-02-08T02:38:32.058Z,82.80
2019-02-08T02:39:36.503Z,82.80
2019-02-08T02:40:41.306Z,82.80
2019-02-08T02:41:45.829Z,82.80
2019-02-08T02:42:50.918Z,82.80
2019-02-08T02:43:55.387Z,82.80
2019-02-08T02:44:59.847Z,82.90
2019-02-08T02:46:04.867Z,82.80
2019-02-08T02:47:09.341Z,82.80
2019-02-08T02:48:14.497Z,82.80
2019-02-08T02:49:19.101Z,82.80
2019-02-08T02:50:23.808Z,82.90
2019-02-08T02:51:28.281Z,82.70
2019-02-08T02:52:32.738Z,82.70
2019-02-08T02:53:37.277Z,82.60
2019-02-08T02:54:41.786Z,82.60
2019-02-08T02:55:46.251Z,82.60
2019-02-08T02:56:51.017Z,82.50
2019-02-08T02:57:55.742Z,82.60
2019-02-08T02:59:00.277Z,82.50
2019-02-08T03:00:13.783Z,82.50
2019-02-08T03:01:18.257Z,82.40
2019-02-08T03:02:22.725Z,82.40
2019-02-08T03:03:27.201Z,82.40
2019-02-08T03:04:31.680Z,82.30
2019-02-08T03:05:36.352Z,82.40
2019-02-08T03:06:40.808Z,82.20
2019-02-08T03:07:45.277Z,82.20
2019-02-08T03:08:49.804Z,82.40
2019-02-08T03:09:54.266Z,82.40
2019-02-08T03:10:58.842Z,82.30
2019-02-08T03:12:03.432Z,82.30
2019-02-08T03:13:08.326Z,82.20
2019-02-08T03:14:12.953Z,82.20
2019-02-08T03:15:22.595Z,82.30
2019-02-08T03:16:27.069Z,82.20
2019-02-08T03:17:31.563Z,82.20
2019-02-08T03:18:36.018Z,82.10
2019-02-08T03:19:40.571Z,82.20
2019-02-08T03:20:45.164Z,82.20
2019-02-08T03:21:49.643Z,82.10
2019-02-08T03:22:54.402Z,82.10
2019-02-08T03:23:58.846Z,82.30
2019-02-08T03:25:04.671Z,82.20
2019-02-08T03:26:09.296Z,82.30
2019-02-08T03:27:13.775Z,82.30
2019-02-08T03:28:18.232Z,82.30
2019-02-08T03:29:22.697Z,82.10
2019-02-08T03:30:30.673Z,82.90
2019-02-08T03:31:35.146Z,82.10
2019-02-08T03:32:39.692Z,82.10
2019-02-08T03:33:44.147Z,82.00
2019-02-08T03:34:48.615Z,82.10
2019-02-08T03:35:53.164Z,82.00
2019-02-08T03:36:57.662Z,82.00
2019-02-08T03:38:02.213Z,82.10
2019-02-08T03:39:08.317Z,82.00
2019-02-08T03:40:15.881Z,82.10
2019-02-08T03:41:20.364Z,82.10
2019-02-08T03:42:24.840Z,82.10
2019-02-08T03:43:29.307Z,82.50
2019-02-08T03:44:33.838Z,82.00
2019-02-08T03:45:39.936Z,82.90
2019-02-08T03:46:44.441Z,82.00
2019-02-08T03:47:49.263Z,81.90
2019-02-08T03:48:53.718Z,81.90
2019-02-08T03:49:58.258Z,81.90
2019-02-08T03:51:02.726Z,82.00
2019-02-08T03:52:07.214Z,81.90
2019-02-08T03:53:12.199Z,82.20
2019-02-08T03:54:21.181Z,82.00
2019-02-08T03:55:23.969Z,82.10
2019-02-08T03:56:28.443Z,82.00
2019-02-08T03:57:32.903Z,81.90
2019-02-08T03:58:37.389Z,81.80
2019-02-08T03:59:41.919Z,81.70
2019-02-08T04:00:48.032Z,81.90
2019-02-08T04:01:54.055Z,81.60
2019-02-08T04:02:58.831Z,81.60
2019-02-08T04:04:12.667Z,81.70
2019-02-08T04:05:17.359Z,81.70
2019-02-08T04:06:22.123Z,81.60
2019-02-08T04:07:26.645Z,82.00
2019-02-08T04:08:31.121Z,81.60
2019-02-08T04:09:35.572Z,81.60
2019-02-08T04:10:40.291Z,81.70
2019-02-08T04:11:44.845Z,81.60
2019-02-08T04:12:49.331Z,81.60
2019-02-08T04:13:53.877Z,81.50
2019-02-08T04:14:58.440Z,81.40
2019-02-08T04:16:03.060Z,80.70
2019-02-08T04:17:07.752Z,81.30
2019-02-08T04:18:12.202Z,81.40
2019-02-08T04:19:16.675Z,82.20
2019-02-08T04:20:26.585Z,81.40
2019-02-08T04:21:31.051Z,81.30
2019-02-08T04:22:35.515Z,82.00
2019-02-08T04:23:39.983Z,81.30
2019-02-08T04:24:44.501Z,81.40
2019-02-08T04:25:49.127Z,81.20
2019-02-08T04:26:53.602Z,81.30
2019-02-08T04:27:58.150Z,81.30
2019-02-08T04:29:02.671Z,81.20
2019-02-08T04:30:26.731Z,81.20
2019-02-08T04:31:31.204Z,81.10
2019-02-08T04:32:35.654Z,80.90
2019-02-08T04:33:40.119Z,81.00
2019-02-08T04:34:44.594Z,80.90
2019-02-08T04:35:49.143Z,80.90
2019-02-08T04:36:53.612Z,81.00
2019-02-08T04:37:58.156Z,81.00
2019-02-08T04:39:03.376Z,81.20
2019-02-08T04:40:11.530Z,81.20
2019-02-08T04:41:16.070Z,81.00
2019-02-08T04:42:20.582Z,81.10
2019-02-08T04:43:25.052Z,81.10
2019-02-08T04:44:29.508Z,81.20
2019-02-08T04:45:34.051Z,81.20
2019-02-08T04:46:38.515Z,81.00
2019-02-08T04:47:43.054Z,81.00
2019-02-08T04:48:47.532Z,81.00
2019-02-08T04:49:51.993Z,81.10
2019-02-08T04:50:56.472Z,81.10
2019-02-08T04:52:01.036Z,81.10
2019-02-08T04:53:05.667Z,81.00
2019-02-08T04:54:10.311Z,81.00
2019-02-08T04:55:15.033Z,81.00
2019-02-08T04:56:19.486Z,80.90
2019-02-08T04:57:23.992Z,80.90
2019-02-08T04:58:35.369Z,81.00
2019-02-08T04:59:34.634Z,81.20
2019-02-08T05:00:39.226Z,81.00
2019-02-08T05:01:43.689Z,81.00
2019-02-08T05:02:48.152Z,81.10
2019-02-08T05:03:52.629Z,81.00
2019-02-08T05:04:57.082Z,81.00
2019-02-08T05:06:01.977Z,81.00
2019-02-08T05:07:06.501Z,81.10
2019-02-08T05:08:11.009Z,81.00
2019-02-08T05:09:15.511Z,81.10
2019-02-08T05:10:22.624Z,81.00
2019-02-08T05:11:27.099Z,81.00
2019-02-08T05:12:31.554Z,81.00
2019-02-08T05:13:36.285Z,81.00
2019-02-08T05:14:40.756Z,81.00
2019-02-08T05:15:45.239Z,81.10
2019-02-08T05:16:49.775Z,81.00
2019-02-08T05:17:54.306Z,81.00
2019-02-08T05:18:58.759Z,80.80
2019-02-08T05:20:05.100Z,80.80
2019-02-08T05:21:11.674Z,80.90
2019-02-08T05:22:16.149Z,80.70
2019-02-08T05:23:20.621Z,80.90
2019-02-08T05:24:25.110Z,80.80
2019-02-08T05:25:29.888Z,80.90
2019-02-08T05:26:34.336Z,80.80
2019-02-08T05:27:38.791Z,80.90
2019-02-08T05:28:43.267Z,80.90
2019-02-08T05:29:49.853Z,80.80
2019-02-08T05:30:54.414Z,80.80
2019-02-08T05:31:58.879Z,80.70
2019-02-08T05:33:03.698Z,80.60
2019-02-08T05:34:08.183Z,80.70
2019-02-08T05:35:12.790Z,80.70
2019-02-08T05:36:17.261Z,80.70
2019-02-08T05:37:21.725Z,80.80
2019-02-08T05:38:26.449Z,80.70
2019-02-08T05:39:30.927Z,80.70
2019-02-08T05:40:35.376Z,80.60
2019-02-08T05:41:39.859Z,80.60
2019-02-08T05:42:44.339Z,80.40
2019-02-08T05:43:48.799Z,81.30
2019-02-08T05:44:53.272Z,80.40
2019-02-08T05:45:57.733Z,80.50
2019-02-08T05:47:02.299Z,80.40
2019-02-08T05:48:06.817Z,80.40
2019-02-08T05:49:11.326Z,80.40
2019-02-08T05:50:18.593Z,80.50
2019-02-08T05:51:23.073Z,80.40
2019-02-08T05:52:27.534Z,80.40
2019-02-08T05:53:31.989Z,80.60
2019-02-08T05:54:36.457Z,80.50
2019-02-08T05:55:40.950Z,80.60
2019-02-08T05:56:45.441Z,80.60
2019-02-08T05:57:51.617Z,80.60
2019-02-08T05:58:56.112Z,80.70
2019-02-08T06:00:02.132Z,80.60
2019-02-08T06:01:06.591Z,80.70
2019-02-08T06:02:11.048Z,80.80
2019-02-08T06:03:17.506Z,80.70
2019-02-08T06:04:22.043Z,80.80
2019-02-08T06:05:26.759Z,80.80
2019-02-08T06:06:31.208Z,80.90
2019-02-08T06:07:35.675Z,80.80
2019-02-08T06:08:40.207Z,80.70
2019-02-08T06:09:44.703Z,80.70
2019-02-08T06:10:49.227Z,80.70
2019-02-08T06:11:53.704Z,80.60
2019-02-08T06:12:58.232Z,80.60
2019-02-08T06:14:02.714Z,80.60
2019-02-08T06:15:12.857Z,80.50
2019-02-08T06:16:17.352Z,80.90
2019-02-08T06:17:21.986Z,80.50
2019-02-08T06:18:26.452Z,80.40
2019-02-08T06:19:32.443Z,80.50
2019-02-08T06:20:37.078Z,80.50
2019-02-08T06:21:41.535Z,80.70
2019-02-08T06:22:46.175Z,80.50
2019-02-08T06:23:50.641Z,80.50
2019-02-08T06:25:02.823Z,80.70
2019-02-08T06:26:01.277Z,80.70
2019-02-08T06:27:05.882Z,80.70
2019-02-08T06:28:10.472Z,80.80
2019-02-08T06:29:14.925Z,80.80
2019-02-08T06:30:27.513Z,80.80
2019-02-08T06:31:31.999Z,80.80
2019-02-08T06:32:36.476Z,80.70
2019-02-08T06:33:41.013Z,80.50
2019-02-08T06:34:45.510Z,80.50
2019-02-08T06:35:50.027Z,80.50
2019-02-08T06:36:54.505Z,80.60
2019-02-08T06:37:59.029Z,80.40
2019-02-08T06:39:05.048Z,80.50
2019-02-08T06:40:15.750Z,80.50
2019-02-08T06:41:21.745Z,81.20
2019-02-08T06:42:26.213Z,80.70
2019-02-08T06:43:30.706Z,80.80
2019-02-08T06:44:35.190Z,80.80
2019-02-08T06:45:40.103Z,80.80
2019-02-08T06:46:44.604Z,80.90
2019-02-08T06:47:49.236Z,80.80
2019-02-08T06:48:55.223Z,80.70
2019-02-08T06:49:59.761Z,80.70
2019-02-08T06:51:04.305Z,80.70
2019-02-08T06:52:08.875Z,80.70
2019-02-08T06:53:13.338Z,80.70
2019-02-08T06:54:17.820Z,80.70
2019-02-08T06:55:22.916Z,81.40
2019-02-08T06:56:45.794Z,80.60
2019-02-08T06:57:51.907Z,80.70
2019-02-08T06:58:58.004Z,80.40
2019-02-08T07:00:05.042Z,80.20
2019-02-08T07:01:16.854Z,80.20
2019-02-08T07:02:25.905Z,80.30
2019-02-08T07:03:32.024Z,80.00
2019-02-08T07:04:40.638Z,80.10
2019-02-08T07:06:02.893Z,79.80
2019-02-08T07:07:09.004Z,79.80
2019-02-08T07:08:31.355Z,79.80
2019-02-08T07:09:49.451Z,79.50
2019-02-08T07:11:01.431Z,79.70
2019-02-08T07:12:10.410Z,79.60
2019-02-08T07:13:16.713Z,79.50
2019-02-08T07:14:31.684Z,79.60
2019-02-08T07:15:37.790Z,79.50
2019-02-08T07:16:59.162Z,79.50
2019-02-08T07:18:14.233Z,79.50
2019-02-08T07:19:35.320Z,79.70
2019-02-08T07:20:41.520Z,79.80
2019-02-08T07:21:47.643Z,79.60
2019-02-08T07:23:03.707Z,79.70
2019-02-08T07:24:15.674Z,80.00
2019-02-08T07:25:21.854Z,80.10
2019-02-08T07:26:43.178Z,80.20
2019-02-08T07:27:49.290Z,81.10
2019-02-08T07:29:13.384Z,81.20
2019-02-08T07:30:34.372Z,80.40
2019-02-08T07:31:55.472Z,80.40
2019-02-08T07:33:19.198Z,80.20
2019-02-08T07:34:25.392Z,80.20
2019-02-08T07:35:37.509Z,80.20
2019-02-08T07:36:49.486Z,80.10
2019-02-08T07:37:56.317Z,80.00
2019-02-08T07:39:08.206Z,79.90
2019-02-08T07:40:32.259Z,79.90
2019-02-08T07:41:50.511Z,79.70
2019-02-08T07:43:13.204Z,79.60
2019-02-08T07:44:21.903Z,79.20
2019-02-08T07:45:37.531Z,79.40
2019-02-08T07:46:51.780Z,79.50
2019-02-08T07:47:58.216Z,79.20
2019-02-08T07:49:04.762Z,79.20
2019-02-08T07:50:30.092Z,79.20
2019-02-08T07:51:42.016Z,79.20
2019-02-08T07:52:48.241Z,79.00
2019-02-08T07:53:57.372Z,79.00
2019-02-08T07:55:25.946Z,79.10
2019-02-08T07:56:28.206Z,79.10
2019-02-08T07:57:37.113Z,79.10
2019-02-08T07:58:46.268Z,78.80
2019-02-08T08:00:01.043Z,79.00
2019-02-08T08:01:13.092Z,79.20
2019-02-08T08:02:35.997Z,79.20
2019-02-08T08:04:01.680Z,79.00
2019-02-08T08:05:10.485Z,78.90
2019-02-08T08:06:29.767Z,78.90
2019-02-08T08:07:39.140Z,79.10
2019-02-08T08:08:45.777Z,79.10
2019-02-08T08:10:04.314Z,79.00
2019-02-08T08:11:13.417Z,78.80
2019-02-08T08:12:36.843Z,78.80
2019-02-08T08:13:43.670Z,78.90
2019-02-08T08:15:00.958Z,78.60
2019-02-08T08:16:12.149Z,78.50
2019-02-08T08:17:24.408Z,78.60
2019-02-08T08:18:42.611Z,78.20
2019-02-08T08:20:02.169Z,78.20
2019-02-08T08:21:24.985Z,78.30
2019-02-08T08:22:33.717Z,78.50
2019-02-08T08:23:43.730Z,78.70
2019-02-08T08:24:52.659Z,78.50
2019-02-08T08:26:04.956Z,78.30
2019-02-08T08:27:13.957Z,78.20
2019-02-08T08:28:26.347Z,78.20
2019-02-08T08:29:34.099Z,78.10
2019-02-08T08:30:43.787Z,77.90
2019-02-08T08:31:52.899Z,77.90
2019-02-08T08:33:00.503Z,77.40
2019-02-08T08:34:10.783Z,77.40
2019-02-08T08:35:27.215Z,77.50
2019-02-08T08:37:03.652Z,77.50
2019-02-08T08:38:23.261Z,77.80
2019-02-08T08:39:45.714Z,77.90
2019-02-08T08:41:05.297Z,77.60
2019-02-08T08:42:15.617Z,77.60
2019-02-08T08:43:41.358Z,77.30
2019-02-08T08:44:51.792Z,76.20
2019-02-08T08:46:07.928Z,77.10
2019-02-08T08:47:35.281Z,77.10
2019-02-08T08:48:42.892Z,77.10
2019-02-08T08:50:21.986Z,76.50
2019-02-08T08:51:47.511Z,76.20
2019-02-08T08:53:01.173Z,75.30
2019-02-08T08:54:17.035Z,76.00
2019-02-08T08:55:45.538Z,76.30
2019-02-08T08:57:11.022Z,76.30
2019-02-08T08:58:24.082Z,76.60
2019-02-08T08:59:55.347Z,76.30
2019-02-08T09:01:14.528Z,76.40
2019-02-08T09:02:24.878Z,76.20
2019-02-08T09:03:37.532Z,75.80
2019-02-08T09:04:47.760Z,75.90
2019-02-08T09:06:08.408Z,75.80
2019-02-08T09:07:28.105Z,75.80
2019-02-08T09:08:59.312Z,75.60
2019-02-08T09:10:21.726Z,75.40
2019-02-08T09:11:51.867Z,74.80
2019-02-08T09:13:33.981Z,75.20
2019-02-08T09:15:02.600Z,75.00
2019-02-08T09:16:28.203Z,73.00
2019-02-08T09:17:59.471Z,73.90
2019-02-08T09:19:19.147Z,73.90
2019-02-08T09:20:41.704Z,73.90
2019-02-08T09:22:21.384Z,73.50
2019-02-08T09:23:52.589Z,73.00
2019-02-08T09:25:11.736Z,74.30
2019-02-08T09:26:19.274Z,73.70
2019-02-08T09:27:26.882Z,74.00
2019-02-08T09:28:51.031Z,74.00
2019-02-08T09:30:22.447Z,74.30
2019-02-08T09:31:44.706Z,74.40
2019-02-08T09:32:57.617Z,75.10
2019-02-08T09:34:07.820Z,74.10
2019-02-08T09:35:48.597Z,74.60
2019-02-08T09:37:29.780Z,73.60
2019-02-08T09:39:09.232Z,73.80
2019-02-08T09:40:36.024Z,75.10
2019-02-08T09:41:49.461Z,74.40
2019-02-08T09:43:13.493Z,74.80
2019-02-08T09:44:41.901Z,76.50
2019-02-08T09:46:09.081Z,76.50
2019-02-08T09:47:31.522Z,77.30
2019-02-08T09:48:53.126Z,76.00
2019-02-08T09:50:09.508Z,77.40
2019-02-08T09:51:22.958Z,77.30
2019-02-08T09:52:57.437Z,73.80
2019-02-08T09:54:19.734Z,74.70
2019-02-08T09:55:38.802Z,73.60
2019-02-08T09:56:55.281Z,72.70
2019-02-08T09:58:28.181Z,74.00
2019-02-08T10:00:07.259Z,70.20
2019-02-08T10:01:46.894Z,67.90
2019-02-08T10:03:24.662Z,68.10
2019-02-08T10:04:44.061Z,69.10
2019-02-08T10:06:26.470Z,69.90
2019-02-08T10:07:54.728Z,66.30
2019-02-08T10:09:14.177Z,65.40
2019-02-08T10:10:54.877Z,64.80
2019-02-08T10:12:25.157Z,66.30
2019-02-08T10:13:32.717Z,62.90
2019-02-08T10:15:12.578Z,62.60
2019-02-08T10:16:53.599Z,63.40
2019-02-08T10:18:20.488Z,64.80
2019-02-08T10:19:52.218Z,64.30
2019-02-08T10:21:20.262Z,61.80
2019-02-08T10:22:39.139Z,63.20
2019-02-08T10:24:15.549Z,59.00
2019-02-08T10:25:52.052Z,58.70
2019-02-08T10:27:23.145Z,59.20
2019-02-08T10:28:53.491Z,58.40
2019-02-08T10:30:24.882Z,58.10
2019-02-08T10:31:55.052Z,58.20
2019-02-08T10:33:35.408Z,57.30
2019-02-08T10:35:16.694Z,56.00
2019-02-08T10:36:57.624Z,57.50
2019-02-08T10:38:18.265Z,56.20
2019-02-08T10:39:38.250Z,57.00
2019-02-08T10:41:07.846Z,55.20
2019-02-08T10:42:31.694Z,54.50
2019-02-08T10:43:58.195Z,52.60
2019-02-08T10:45:23.318Z,54.10
2019-02-08T10:46:34.819Z,54.40
2019-02-08T10:47:43.303Z,53.20
2019-02-08T10:49:10.650Z,53.50
2019-02-08T10:50:27.633Z,52.00
2019-02-08T10:51:52.189Z,50.60
2019-02-08T10:53:06.185Z,52.30
2019-02-08T10:54:38.228Z,51.60
2019-02-08T10:56:04.774Z,50.30
2019-02-08T10:57:27.582Z,50.20
2019-02-08T10:58:48.149Z,50.00
2019-02-08T11:00:02.922Z,49.10
2019-02-08T11:01:27.039Z,49.40
2019-02-08T11:02:55.900Z,49.10
2019-02-08T11:04:06.234Z,48.80
2019-02-08T11:05:33.327Z,49.60
2019-02-08T11:07:13.977Z,48.20
2019-02-08T11:08:38.432Z,49.60
2019-02-08T11:10:11.316Z,48.80
2019-02-08T11:11:27.823Z,47.70
2019-02-08T11:13:06.934Z,49.50
2019-02-08T11:14:26.604Z,49.40
2019-02-08T11:16:03.345Z,48.50
2019-02-08T11:17:32.148Z,49.90
2019-02-08T11:18:56.652Z,50.40
2019-02-08T11:20:01.137Z,50.90
2019-02-08T11:21:05.770Z,45.20
2019-02-08T11:22:10.404Z,49.40
2019-02-08T11:23:14.885Z,49.40
2019-02-08T11:24:21.091Z,48.80
2019-02-08T11:25:25.613Z,47.50
2019-02-08T11:26:30.217Z,48.20
2019-02-08T11:27:34.690Z,46.90
2019-02-08T11:28:39.224Z,47.20
2019-02-08T11:29:43.691Z,45.90
2019-02-08T11:30:48.170Z,45.60
2019-02-08T11:31:52.708Z,45.50
2019-02-08T11:32:57.254Z,45.70
2019-02-08T11:34:01.751Z,44.30
2019-02-08T11:35:08.475Z,44.70
2019-02-08T11:36:13.193Z,43.40
2019-02-08T11:37:17.736Z,43.60
2019-02-08T11:38:22.219Z,41.40
2019-02-08T11:39:28.269Z,42.50
2019-02-08T11:40:32.754Z,41.60
2019-02-08T11:41:37.305Z,41.20
2019-02-08T11:42:41.806Z,41.90
2019-02-08T11:43:46.339Z,42.20
2019-02-08T11:44:50.815Z,43.20
2019-02-08T11:45:56.614Z,43.00
2019-02-08T11:47:01.508Z,42.90
2019-02-08T11:48:06.425Z,42.60
2019-02-08T11:49:10.917Z,43.40
2019-02-08T11:50:18.789Z,44.00
2019-02-08T11:51:23.360Z,43.20
2019-02-08T11:52:28.754Z,42.70
2019-02-08T11:53:33.243Z,41.70
2019-02-08T11:54:37.825Z,41.60
2019-02-08T11:55:42.304Z,42.30
2019-02-08T11:56:46.882Z,42.70
2019-02-08T11:57:51.486Z,42.00
2019-02-08T11:58:56.134Z,42.60
2019-02-08T12:00:01.727Z,42.30
2019-02-08T12:01:06.490Z,42.30
2019-02-08T12:02:11.112Z,42.40
2019-02-08T12:03:15.619Z,42.50
2019-02-08T12:04:20.144Z,42.40
2019-02-08T12:05:24.682Z,42.60
2019-02-08T12:06:29.264Z,42.40
2019-02-08T12:07:34.228Z,42.20
2019-02-08T12:08:38.703Z,41.90
2019-02-08T12:09:43.323Z,42.30
2019-02-08T12:10:47.807Z,40.90
2019-02-08T12:11:52.311Z,41.20
2019-02-08T12:12:56.830Z,41.50
2019-02-08T12:14:01.354Z,41.90
2019-02-08T12:15:15.121Z,42.40
2019-02-08T12:16:19.612Z,42.30
2019-02-08T12:17:24.148Z,42.00
2019-02-08T12:18:28.707Z,41.60
2019-02-08T12:19:33.267Z,42.30
2019-02-08T12:20:37.753Z,42.70
2019-02-08T12:21:42.556Z,42.60
2019-02-08T12:22:47.023Z,42.20
2019-02-08T12:23:51.570Z,41.40
2019-02-08T12:24:56.038Z,41.70
2019-02-08T12:26:00.530Z,41.10
2019-02-08T12:27:06.379Z,41.10
2019-02-08T12:28:10.849Z,39.20
2019-02-08T12:29:15.460Z,40.20
2019-02-08T12:30:23.121Z,40.50
2019-02-08T12:31:27.595Z,40.60
2019-02-08T12:32:32.166Z,41.00
2019-02-08T12:33:38.288Z,41.00
2019-02-08T12:34:42.780Z,41.10
2019-02-08T12:35:47.284Z,40.20
2019-02-08T12:36:51.830Z,40.70
2019-02-08T12:37:56.331Z,41.00
2019-02-08T12:39:00.876Z,40.80
2019-02-08T12:40:09.723Z,40.80
2019-02-08T12:41:14.215Z,39.20
2019-02-08T12:42:18.705Z,39.60
2019-02-08T12:43:23.180Z,39.30
2019-02-08T12:44:27.666Z,38.80
2019-02-08T12:45:32.218Z,38.60
2019-02-08T12:46:36.986Z,36.90
2019-02-08T12:47:41.479Z,37.30
2019-02-08T12:48:46.027Z,37.00
2019-02-08T12:49:50.508Z,37.10
2019-02-08T12:50:55.001Z,37.20
2019-02-08T12:51:59.654Z,37.00
2019-02-08T12:53:04.468Z,35.00
2019-02-08T12:54:09.043Z,34.70
2019-02-08T12:55:18.507Z,33.90
2019-02-08T12:56:23.234Z,33.90
2019-02-08T12:57:27.892Z,34.50
2019-02-08T12:58:32.420Z,34.10
2019-02-08T12:59:36.937Z,33.90
2019-02-08T13:00:41.410Z,34.00
2019-02-08T13:01:45.896Z,33.50
2019-02-08T13:02:50.350Z,33.30
2019-02-08T13:03:54.816Z,33.80
2019-02-08T13:04:59.650Z,33.80
2019-02-08T13:06:04.969Z,34.10
2019-02-08T13:07:10.422Z,34.10
2019-02-08T13:08:14.974Z,34.90
2019-02-08T13:09:19.450Z,35.40
2019-02-08T13:10:26.949Z,35.00
2019-02-08T13:11:31.419Z,33.50
2019-02-08T13:12:35.901Z,33.00
2019-02-08T13:13:40.448Z,34.00
2019-02-08T13:14:44.915Z,34.30
2019-02-08T13:15:49.432Z,34.90
2019-02-08T13:16:54.279Z,34.90
2019-02-08T13:17:58.765Z,33.20
2019-02-08T13:19:03.249Z,34.00
2019-02-08T13:20:10.737Z,33.50
2019-02-08T13:21:15.276Z,34.00
2019-02-08T13:22:19.784Z,34.80
2019-02-08T13:23:24.248Z,34.90
2019-02-08T13:24:28.740Z,35.50
2019-02-08T13:25:33.216Z,35.80
2019-02-08T13:26:37.749Z,36.00
2019-02-08T13:27:42.519Z,36.30
2019-02-08T13:28:47.042Z,35.90
2019-02-08T13:29:51.521Z,35.40
2019-02-08T13:30:55.987Z,35.40
2019-02-08T13:32:00.492Z,34.00
2019-02-08T13:33:05.306Z,33.60
2019-02-08T13:34:09.799Z,33.30
2019-02-08T13:35:14.274Z,32.70
2019-02-08T13:36:19.028Z,32.40
2019-02-08T13:37:23.531Z,32.00
2019-02-08T13:38:27.998Z,33.00
2019-02-08T13:39:32.508Z,33.30
2019-02-08T13:40:36.981Z,33.30
2019-02-08T13:41:41.466Z,33.30
2019-02-08T13:42:45.944Z,33.30
2019-02-08T13:43:50.420Z,33.80
2019-02-08T13:44:54.899Z,33.40
2019-02-08T13:45:59.388Z,33.60
2019-02-08T13:47:03.933Z,33.70
2019-02-08T13:48:08.738Z,33.70
2019-02-08T13:49:14.774Z,33.30
2019-02-08T13:50:30.789Z,33.20
2019-02-08T13:51:35.365Z,33.80
2019-02-08T13:52:41.169Z,34.00
2019-02-08T13:53:45.605Z,34.00
2019-02-08T13:54:50.078Z,33.70
2019-02-08T13:55:54.536Z,33.70
2019-02-08T13:57:00.733Z,33.80
2019-02-08T13:58:06.236Z,33.90
2019-02-08T13:59:10.877Z,34.00
2019-02-08T14:00:22.583Z,34.10
2019-02-08T14:01:27.049Z,34.50
2019-02-08T14:02:32.890Z,34.70
2019-02-08T14:03:37.829Z,34.60
2019-02-08T14:04:42.320Z,35.00
2019-02-08T14:05:46.871Z,35.00
2019-02-08T14:06:51.344Z,35.00
2019-02-08T14:07:55.842Z,34.80
2019-02-08T14:09:04.315Z,34.50
2019-02-08T14:10:11.925Z,34.40
2019-02-08T14:11:16.402Z,34.30
2019-02-08T14:12:20.959Z,34.20
2019-02-08T14:13:25.420Z,34.00
2019-02-08T14:14:29.917Z,33.70
2019-02-08T14:15:35.851Z,34.00
2019-02-08T14:16:40.333Z,34.40
2019-02-08T14:17:44.820Z,34.50
2019-02-08T14:18:50.929Z,34.10
2019-02-08T14:19:55.407Z,33.90
2019-02-08T14:20:59.883Z,34.00
2019-02-08T14:22:04.704Z,33.60
2019-02-08T14:23:09.185Z,33.30
2019-02-08T14:24:13.736Z,33.60
2019-02-08T14:25:18.563Z,33.00
2019-02-08T14:26:23.051Z,33.00
2019-02-08T14:27:27.643Z,33.00
2019-02-08T14:28:32.113Z,33.00
2019-02-08T14:29:36.625Z,33.50
2019-02-08T14:30:43.090Z,32.50
2019-02-08T14:31:47.626Z,32.80
2019-02-08T14:32:52.105Z,32.90
2019-02-08T14:33:56.635Z,32.90
2019-02-08T14:35:01.106Z,32.90
2019-02-08T14:36:05.963Z,32.80
2019-02-08T14:37:10.452Z,32.80
2019-02-08T14:38:18.370Z,32.70
2019-02-08T14:39:22.893Z,32.90
2019-02-08T14:40:28.808Z,32.80
2019-02-08T14:41:34.827Z,32.70
2019-02-08T14:42:39.351Z,32.60
2019-02-08T14:43:43.853Z,32.80
2019-02-08T14:44:48.335Z,32.80
2019-02-08T14:45:52.890Z,32.80
2019-02-08T14:46:57.368Z,32.80